Time;durP1;ratioP1;P1;durP2;ratioP2;P2;SDS_P1;SDS_P2;PMS_P1;PMS_P2;Temp;Humidity;BMP_temperature;BMP_pressure;BME280_temperature;BME280_humidity;BME280_pressure;Samples;Min_cycle;Max_cycle;Signal;HPM_P1;HPM_P2
2023/05/29 00:05:05;;;;;;;13.83;12.93;;;13.40;99.90;;;;;;2610535;54;20252;-71
2023/05/29 00:10:53;;;;;;;12.30;11.70;;;13.30;99.90;;;;;;2610062;54;20479;-70
2023/05/29 00:20:35;;;;;;;12.60;11.80;;;13.10;99.90;;;;;;2609825;54;20444;-69
2023/05/29 00:26:23;;;;;;;12.70;12.00;;;13.10;99.90;;;;;;2610041;54;20418;-71
2023/05/29 00:32:11;;;;;;;11.80;11.10;;;13.00;99.90;;;;;;2610806;54;20146;-71
2023/05/29 00:37:59;;;;;;;13.57;11.17;;;12.80;99.90;;;;;;2611618;39;20653;-70
2023/05/29 00:43:46;;;;;;;11.73;11.03;;;12.80;99.90;;;;;;2612434;54;20282;-71
2023/05/29 00:49:37;;;;;;;11.57;10.97;;;12.70;99.90;;;;;;2611307;54;20134;-71
2023/05/29 00:55:25;;;;;;;11.60;10.70;;;12.60;99.90;;;;;;2614528;54;20419;-71
2023/05/29 01:01:12;;;;;;;15.33;11.07;;;12.60;99.90;;;;;;2613831;54;20146;-71
2023/05/29 01:07:02;;;;;;;12.23;11.03;;;12.40;99.90;;;;;;2615209;54;20900;-72
2023/05/29 01:12:55;;;;;;;11.23;9.90;;;12.20;99.90;;;;;;2612863;54;20435;-71
2023/05/29 01:16:00;;;;;;;11.70;10.87;;;12.10;99.90;;;;;;2611172;54;20511;-71
2023/05/29 01:31:26;;;;;;;12.80;11.53;;;11.90;99.90;;;;;;2610863;54;20366;-71
2023/05/29 01:37:14;;;;;;;11.00;10.07;;;11.80;99.90;;;;;;2610449;54;20398;-70
2023/05/29 01:43:02;;;;;;;13.33;10.00;;;11.80;99.90;;;;;;2610377;54;20680;-70
2023/05/29 01:48:50;;;;;;;11.57;10.57;;;11.60;99.90;;;;;;2609210;54;20387;-70
2023/05/29 01:54:38;;;;;;;12.60;10.23;;;11.50;99.90;;;;;;2610530;54;20873;-70
2023/05/29 02:00:26;;;;;;;11.27;9.77;;;11.30;99.90;;;;;;2614496;54;20374;-70
2023/05/29 02:06:14;;;;;;;10.07;9.00;;;11.20;99.90;;;;;;2613769;54;20123;-70
2023/05/29 02:12:02;;;;;;;9.90;8.93;;;11.10;99.90;;;;;;2610223;54;20488;-70
2023/05/29 02:21:17;;;;;;;10.00;9.00;;;10.90;99.90;;;;;;2611396;54;20422;-70
2023/05/29 02:27:05;;;;;;;9.20;8.20;;;10.90;99.90;;;;;;2610994;39;20743;-71
2023/05/29 02:32:53;;;;;;;14.70;8.23;;;10.80;99.90;;;;;;2614442;54;20695;-75
2023/05/29 02:38:41;;;;;;;16.60;9.73;;;10.70;99.90;;;;;;2614161;54;20234;-74
2023/05/29 02:44:29;;;;;;;9.07;8.10;;;10.60;99.90;;;;;;2614646;54;20149;-74
2023/05/29 02:50:17;;;;;;;15.70;8.63;;;10.50;99.90;;;;;;2614242;54;20132;-74
2023/05/29 02:56:08;;;;;;;13.40;9.10;;;10.50;99.90;;;;;;2614111;54;20189;-74
2023/05/29 03:01:55;;;;;;;10.50;7.97;;;10.40;99.90;;;;;;2613383;46;20498;-75
2023/05/29 03:07:43;;;;;;;12.23;7.87;;;10.30;99.90;;;;;;2613385;54;20162;-74
2023/05/29 03:13:34;;;;;;;14.50;7.77;;;10.20;99.90;;;;;;2613817;54;20138;-73
2023/05/29 03:16:47;;;;;;;8.37;7.57;;;10.20;99.90;;;;;;2613960;54;20415;-74
2023/05/29 03:19:13;;;;;;;21.03;8.27;;;10.10;99.90;;;;;;2614382;54;20936;-74
2023/05/29 03:25:02;;;;;;;17.43;8.57;;;10.10;99.90;;;;;;2615201;31;20659;-74
2023/05/29 03:30:51;;;;;;;13.80;8.10;;;10.00;99.90;;;;;;2613922;54;20398;-75
2023/05/29 03:36:39;;;;;;;15.80;9.30;;;10.10;99.90;;;;;;2614066;54;20446;-75
2023/05/29 03:42:26;;;;;;;13.17;8.37;;;10.10;99.90;;;;;;2614327;54;20158;-74
2023/05/29 03:48:15;;;;;;;13.60;7.10;;;10.00;99.90;;;;;;2613512;54;20142;-75
2023/05/29 03:54:03;;;;;;;14.30;6.90;;;10.00;99.90;;;;;;2613449;54;20399;-74
2023/05/29 03:59:51;;;;;;;13.77;8.07;;;10.00;99.90;;;;;;2613988;54;20644;-74
2023/05/29 04:05:38;;;;;;;14.27;10.30;;;10.00;99.90;;;;;;2614189;54;20146;-74
2023/05/29 04:11:26;;;;;;;8.67;7.93;;;10.00;99.90;;;;;;2614645;54;20123;-74
2023/05/29 04:21:16;;;;;;;9.30;8.40;;;10.10;99.90;;;;;;2614048;54;20399;-75
2023/05/29 04:27:04;;;;;;;20.60;8.67;;;10.10;99.90;;;;;;2615036;31;20851;-73
2023/05/29 04:32:53;;;;;;;11.47;8.00;;;10.20;99.90;;;;;;2614846;54;20158;-74
2023/05/29 04:38:40;;;;;;;13.60;8.27;;;10.40;99.90;;;;;;2614832;54;20868;-73
2023/05/29 04:44:29;;;;;;;17.23;7.37;;;10.70;99.90;;;;;;2615205;54;20223;-74
2023/05/29 04:50:17;;;;;;;13.30;8.87;;;11.00;99.90;;;;;;2615058;54;20362;-73
2023/05/29 04:56:05;;;;;;;15.37;8.80;;;11.10;99.90;;;;;;2615208;46;20429;-73
2023/05/29 05:01:52;;;;;;;14.50;8.77;;;11.30;99.90;;;;;;2615096;54;20130;-75
2023/05/29 05:07:40;;;;;;;12.73;9.77;;;11.50;99.90;;;;;;2615354;54;20568;-73
2023/05/29 05:13:28;;;;;;;10.03;9.03;;;11.80;99.90;;;;;;2615138;54;20130;-74
2023/05/29 05:16:47;;;;;;;17.70;10.47;;;12.00;99.90;;;;;;2614576;54;20411;-74
2023/05/29 05:19:13;;;;;;;14.60;10.73;;;12.10;99.90;;;;;;2614386;47;20163;-73
2023/05/29 05:25:01;;;;;;;12.10;10.63;;;12.40;99.90;;;;;;2616078;31;20631;-74
2023/05/29 05:30:48;;;;;;;13.63;10.03;;;12.00;99.90;;;;;;2614671;54;20226;-74
2023/05/29 05:36:36;;;;;;;12.83;10.30;;;12.40;99.90;;;;;;2614683;54;20146;-74
2023/05/29 05:42:24;;;;;;;12.13;11.03;;;12.70;99.90;;;;;;2614420;54;20150;-75
2023/05/29 05:48:12;;;;;;;16.43;11.33;;;13.00;99.90;;;;;;2615407;54;20138;-74
2023/05/29 05:53:59;;;;;;;12.10;10.90;;;13.60;99.90;;;;;;2614223;39;20544;-74
2023/05/29 05:59:47;;;;;;;11.60;10.80;;;13.80;99.90;;;;;;2611886;54;20189;-74
2023/05/29 06:05:37;;;;;;;13.23;11.40;;;14.30;99.90;;;;;;2614610;46;20166;-73
2023/05/29 06:11:27;;;;;;;12.63;11.53;;;13.90;99.90;;;;;;2614440;54;20902;-74
2023/05/29 06:21:17;;;;;;;14.27;12.93;;;14.30;99.90;;;;;;2614525;54;21044;-74
2023/05/29 06:27:06;;;;;;;14.20;11.77;;;14.00;99.90;;;;;;2612447;54;20426;-74
2023/05/29 06:32:54;;;;;;;16.80;12.50;;;14.20;99.90;;;;;;2613307;54;20386;-73
2023/05/29 06:38:47;;;;;;;15.50;11.47;;;14.70;99.90;;;;;;2613919;54;20519;-74
2023/05/29 06:44:35;;;;;;;14.37;12.60;;;15.30;99.90;;;;;;2614125;54;20960;-74
2023/05/29 06:50:23;;;;;;;14.43;13.10;;;15.00;99.90;;;;;;2612926;54;20158;-74
2023/05/29 06:56:10;;;;;;;13.63;12.40;;;15.50;99.90;;;;;;2614310;31;20603;-75
2023/05/29 07:01:58;;;;;;;14.07;12.63;;;15.50;99.90;;;;;;2613947;54;20166;-74
2023/05/29 07:07:46;;;;;;;16.87;15.63;;;15.80;99.90;;;;;;2613123;54;20133;-74
2023/05/29 07:13:35;;;;;;;15.70;14.20;;;15.80;99.10;;;;;;2610911;54;20141;-74
2023/05/29 07:16:48;;;;;;;14.27;13.00;;;15.80;98.30;;;;;;2611859;39;20853;-74
2023/05/29 07:19:14;;;;;;;16.73;14.90;;;16.40;98.00;;;;;;2613038;54;20432;-74
2023/05/29 07:25:03;;;;;;;16.43;13.30;;;16.50;78.50;;;;;;2613785;39;20487;-73
2023/05/29 07:30:50;;;;;;;15.70;14.17;;;16.50;77.50;;;;;;2613309;54;20507;-73
2023/05/29 07:43:20;;;;;;;14.47;13.37;;;16.60;66.00;;;;;;2614492;46;20422;-73
2023/05/29 07:49:08;;;;;;;17.13;15.43;;;16.80;61.30;;;;;;2614162;54;20247;-73
2023/05/29 07:54:56;;;;;;;17.47;16.10;;;16.90;57.10;;;;;;2612987;54;20149;-74
2023/05/29 08:00:44;;;;;;;15.20;14.10;;;17.20;58.00;;;;;;2614013;54;21008;-73
2023/05/29 08:06:32;;;;;;;14.90;13.47;;;17.30;50.10;;;;;;2613926;54;20542;-74
2023/05/29 08:12:20;;;;;;;18.17;15.23;;;17.40;48.60;;;;;;2612939;54;20168;-73
2023/05/29 08:21:33;;;;;;;14.87;13.47;;;17.40;52.30;;;;;;2612682;54;20418;-73
2023/05/29 08:27:21;;;;;;;14.83;13.73;;;17.70;43.50;;;;;;2613330;39;20938;-74
2023/05/29 08:33:09;;;;;;;14.80;13.27;;;18.50;38.20;;;;;;2611835;54;20174;-74
2023/05/29 08:38:57;;;;;;;17.17;15.50;;;17.80;35.40;;;;;;2614241;54;20142;-73
2023/05/29 08:44:48;;;;;;;15.67;14.13;;;18.50;39.60;;;;;;2612965;54;20263;-73
2023/05/29 08:57:08;;;;;;;16.40;14.67;;;18.70;34.60;;;;;;2612639;54;20350;-73
2023/05/29 09:02:56;;;;;;;17.20;15.70;;;19.30;30.40;;;;;;2613263;54;20367;-74
2023/05/29 09:08:44;;;;;;;17.43;15.93;;;18.90;34.50;;;;;;2613137;54;20411;-74
2023/05/29 09:14:40;;;;;;;17.53;16.13;;;18.90;29.30;;;;;;2614009;54;20391;-74
2023/05/29 09:23:52;;;;;;;18.97;17.07;;;18.90;27.20;;;;;;2610899;54;20427;-73
2023/05/29 09:29:42;;;;;;;16.20;15.00;;;19.00;26.60;;;;;;2612407;54;20367;-73
2023/05/29 09:42:21;;;;;;;18.67;16.77;;;19.30;25.50;;;;;;2609343;54;21467;-75
2023/05/29 09:48:13;;;;;;;15.37;14.13;;;19.60;26.60;;;;;;2613465;39;20653;-74
2023/05/29 10:00:40;;;;;;;16.60;15.30;;;20.50;20.70;;;;;;2613702;54;20391;-74
2023/05/29 10:06:29;;;;;;;16.00;14.80;;;20.20;20.70;;;;;;2613569;54;20434;-73
2023/05/29 10:12:20;;;;;;;15.70;14.60;;;20.40;20.30;;;;;;2613710;54;20395;-74
2023/05/29 10:18:26;;;;;;;17.30;14.70;;;21.40;18.60;;;;;;2613211;47;20952;-74
2023/05/29 10:24:14;;;;;;;14.90;13.73;;;20.80;17.80;;;;;;2614007;54;20426;-74
2023/05/29 10:40:12;;;;;;;16.60;15.10;;;20.00;19.20;;;;;;2612655;46;20539;-74
2023/05/29 10:46:01;;;;;;;16.93;15.40;;;20.30;18.70;;;;;;2612310;39;20908;-73
2023/05/29 10:51:49;;;;;;;18.00;16.20;;;20.70;17.30;;;;;;2611937;54;20483;-74
2023/05/29 10:57:36;;;;;;;16.90;15.60;;;20.90;17.50;;;;;;2611462;54;20372;-75
2023/05/29 11:09:39;;;;;;;16.57;15.10;;;21.30;15.80;;;;;;2613291;54;20423;-75
2023/05/29 11:15:27;;;;;;;19.33;17.60;;;21.80;14.80;;;;;;2614454;54;20399;-74
2023/05/29 11:21:30;;;;;;;16.10;14.70;;;22.00;15.40;;;;;;2613512;46;20138;-74
2023/05/29 11:30:45;;;;;;;15.90;14.60;;;22.10;13.20;;;;;;2613726;54;20419;-74
2023/05/29 11:36:33;;;;;;;16.80;15.40;;;20.80;14.60;;;;;;2612502;54;20391;-73
2023/05/29 11:42:21;;;;;;;17.67;16.40;;;21.80;14.70;;;;;;2612930;54;20419;-74
2023/05/29 11:48:08;;;;;;;16.07;14.87;;;21.60;13.90;;;;;;2613524;54;20133;-76
2023/05/29 11:53:59;;;;;;;15.97;14.77;;;21.90;12.50;;;;;;2613522;54;20179;-74
2023/05/29 11:59:47;;;;;;;16.43;14.90;;;21.80;12.00;;;;;;2613984;54;20423;-74
2023/05/29 12:05:54;;;;;;;16.70;15.40;;;22.40;11.10;;;;;;2613887;54;20491;-74
2023/05/29 12:11:42;;;;;;;16.60;15.50;;;22.50;11.20;;;;;;2612791;54;20468;-75
2023/05/29 12:17:30;;;;;;;14.50;13.50;;;21.90;12.20;;;;;;2613384;54;20126;-73
2023/05/29 12:23:20;;;;;;;14.43;13.23;;;22.40;11.10;;;;;;2614596;39;20768;-74
2023/05/29 12:25:48;;;;;;;14.63;13.57;;;22.60;9.90;;;;;;2614749;54;20957;-74
2023/05/29 12:28:20;;;;;;;15.20;14.00;;;22.70;10.20;;;;;;2613822;39;20856;-75
2023/05/29 12:34:15;;;;;;;14.83;13.63;;;23.00;8.80;;;;;;2614695;54;20417;-74
2023/05/29 12:46:27;;;;;;;14.13;13.13;;;22.50;9.20;;;;;;2611644;54;20366;-75
2023/05/29 12:52:15;;;;;;;13.93;12.93;;;22.50;9.30;;;;;;2614085;39;20731;-75
2023/05/29 12:58:04;;;;;;;14.70;13.50;;;22.60;8.00;;;;;;2613553;54;20396;-75
2023/05/29 13:03:52;;;;;;;14.40;13.40;;;21.90;9.10;;;;;;2613244;39;20791;-73
2023/05/29 13:09:40;;;;;;;14.97;13.47;;;22.10;7.90;;;;;;2614117;54;20150;-74
2023/05/29 13:15:28;;;;;;;14.30;13.00;;;21.80;8.70;;;;;;2613202;54;20150;-74
2023/05/29 13:21:16;;;;;;;13.70;12.70;;;22.20;9.00;;;;;;2613092;54;20395;-73
2023/05/29 13:30:25;;;;;;;14.53;13.43;;;22.10;7.90;;;;;;2614640;54;21709;-75
2023/05/29 13:36:13;;;;;;;16.73;15.30;;;22.70;8.60;;;;;;2612219;54;20406;-75
2023/05/29 13:42:01;;;;;;;18.80;17.50;;;22.10;8.30;;;;;;2613784;54;20159;-75
2023/05/29 13:44:46;;;;;;;18.57;16.97;;;22.20;10.20;;;;;;2613086;54;21083;-75
2023/05/29 13:47:12;;;;;;;19.40;18.10;;;22.50;7.30;;;;;;2612202;47;20161;-74
2023/05/29 13:53:00;;;;;;;26.03;22.37;;;22.00;8.80;;;;;;2611551;54;20139;-74
2023/05/29 13:58:47;;;;;;;15.20;13.80;;;22.30;7.70;;;;;;2612926;54;20401;-74
2023/05/29 14:01:51;;;;;;;16.47;15.27;;;21.70;7.50;;;;;;2611294;46;20427;-74
2023/05/29 14:04:16;;;;;;;15.27;14.20;;;21.40;7.60;;;;;;2612419;54;20439;-75
2023/05/29 14:10:05;;;;;;;14.63;13.20;;;21.60;9.50;;;;;;2611832;54;20151;-73
2023/05/29 14:15:54;;;;;;;15.70;14.50;;;21.20;7.40;;;;;;2610057;54;20411;-74
2023/05/29 14:21:43;;;;;;;15.87;14.67;;;21.80;7.40;;;;;;2611696;54;20391;-76
2023/05/29 14:28:08;;;;;;;15.70;14.43;;;21.40;8.50;;;;;;2613077;39;20817;-75
2023/05/29 14:30:49;;;;;;;16.40;15.03;;;21.80;8.00;;;;;;2612264;31;20937;-75
2023/05/29 14:36:37;;;;;;;16.50;15.03;;;22.20;3.60;;;;;;2613323;54;21025;-74
2023/05/29 14:42:25;;;;;;;13.33;12.33;;;22.20;4.40;;;;;;2613831;39;20532;-75
2023/05/29 14:48:13;;;;;;;14.10;13.00;;;22.60;4.10;;;;;;2613053;54;20131;-74
2023/05/29 14:54:00;;;;;;;13.33;12.53;;;22.50;1.00;;;;;;2613543;39;20519;-75
2023/05/29 14:59:50;;;;;;;14.13;12.70;;;22.60;1.70;;;;;;2612934;54;20134;-74
2023/05/29 15:05:37;;;;;;;14.47;12.93;;;22.40;1.00;;;;;;2612118;54;20366;-74
2023/05/29 15:11:26;;;;;;;14.60;13.60;;;22.30;1.00;;;;;;2609732;54;20748;-74
2023/05/29 15:17:13;;;;;;;14.90;13.70;;;22.60;3.20;;;;;;2612986;54;20383;-73
2023/05/29 15:23:01;;;;;;;13.40;12.50;;;22.30;1.00;;;;;;2612969;54;20170;-74
2023/05/29 15:26:20;;;;;;;13.23;12.43;;;22.30;1.00;;;;;;2610778;47;20427;-74
2023/05/29 15:28:45;;;;;;;12.83;11.97;;;22.60;1.00;;;;;;2612197;51;20700;-73
2023/05/29 15:34:34;;;;;;;13.67;12.60;;;22.10;1.00;;;;;;2612555;54;20215;-74
2023/05/29 15:40:22;;;;;;;13.70;12.40;;;22.30;1.00;;;;;;2609305;54;20370;-70
2023/05/29 15:46:10;;;;;;;14.47;13.37;;;21.90;1.00;;;;;;2612486;54;20231;-69
2023/05/29 15:51:58;;;;;;;14.13;13.03;;;21.90;1.00;;;;;;2609339;54;20134;-68
2023/05/29 15:57:47;;;;;;;13.87;12.80;;;22.20;1.00;;;;;;2614199;54;20134;-69
2023/05/29 16:03:35;;;;;;;14.50;13.50;;;22.10;1.00;;;;;;2614449;39;20849;-69
2023/05/29 16:09:22;;;;;;;14.67;13.47;;;22.50;1.00;;;;;;2611229;39;20513;-69
2023/05/29 16:15:10;;;;;;;13.87;12.80;;;22.20;1.00;;;;;;2610765;54;20258;-69
2023/05/29 16:20:59;;;;;;;14.80;13.43;;;22.40;1.00;;;;;;2613728;54;20394;-69
2023/05/29 16:30:49;;;;;;;14.73;13.67;;;22.10;1.00;;;;;;2612159;54;20426;-69
2023/05/29 16:36:37;;;;;;;13.90;13.00;;;21.80;1.00;;;;;;2610249;54;20988;-70
2023/05/29 16:42:25;;;;;;;13.90;12.60;;;21.90;1.00;;;;;;2610927;39;20559;-70
2023/05/29 16:48:12;;;;;;;15.00;13.77;;;21.30;1.00;;;;;;2610674;54;20411;-69
2023/05/29 16:54:00;;;;;;;15.57;14.17;;;20.80;1.00;;;;;;2609414;54;20162;-70
2023/05/29 16:59:48;;;;;;;15.40;13.87;;;20.70;1.00;;;;;;2610393;54;20138;-70
2023/05/29 17:05:35;;;;;;;15.40;13.97;;;20.50;1.00;;;;;;2610417;54;20115;-69
2023/05/29 17:11:23;;;;;;;14.90;13.80;;;20.50;1.00;;;;;;2610793;54;20150;-69
2023/05/29 17:17:11;;;;;;;15.60;14.50;;;20.20;1.00;;;;;;2610963;54;20162;-68
2023/05/29 17:22:59;;;;;;;15.87;14.77;;;20.30;1.00;;;;;;2612164;39;20641;-70
2023/05/29 17:29:03;;;;;;;15.60;14.50;;;20.10;1.00;;;;;;2609381;47;20151;-70
2023/05/29 17:34:53;;;;;;;20.63;18.47;;;19.70;1.00;;;;;;2607523;54;20751;-70
2023/05/29 17:40:40;;;;;;;15.60;14.40;;;19.60;1.00;;;;;;2611851;39;20781;-70
2023/05/29 17:46:27;;;;;;;18.83;17.43;;;19.30;1.00;;;;;;2610988;54;20155;-70
2023/05/29 17:52:14;;;;;;;18.50;17.30;;;19.20;1.00;;;;;;2607460;54;20157;-69
2023/05/29 17:58:02;;;;;;;18.13;17.03;;;19.00;1.00;;;;;;2609443;39;20628;-70
2023/05/29 18:03:49;;;;;;;17.97;16.97;;;18.80;1.00;;;;;;2607862;54;20371;-70
2023/05/29 18:09:37;;;;;;;17.37;16.37;;;18.70;1.00;;;;;;2612924;54;20709;-71
2023/05/29 18:15:25;;;;;;;17.67;16.87;;;18.60;1.00;;;;;;2612844;54;20170;-71
2023/05/29 18:21:13;;;;;;;18.10;17.20;;;18.50;1.00;;;;;;2613431;54;20154;-71
2023/05/29 18:30:51;;;;;;;18.33;17.03;;;18.30;1.00;;;;;;2610067;54;20511;-70
2023/05/29 18:36:38;;;;;;;18.60;17.40;;;18.20;1.00;;;;;;2610740;54;20920;-71
2023/05/29 18:42:26;;;;;;;18.10;17.00;;;18.00;1.00;;;;;;2609203;54;20158;-70
2023/05/29 18:48:14;;;;;;;19.90;18.60;;;17.90;1.00;;;;;;2609799;54;20129;-70
2023/05/29 18:54:02;;;;;;;19.33;17.80;;;17.70;1.00;;;;;;2609906;54;20226;-70
2023/05/29 18:59:52;;;;;;;22.30;20.70;;;17.60;1.00;;;;;;2610984;54;20358;-71
2023/05/29 19:05:41;;;;;;;20.33;18.97;;;17.40;1.00;;;;;;2610907;54;20371;-70
2023/05/29 19:11:28;;;;;;;23.00;21.03;;;17.30;1.00;;;;;;2610988;54;20419;-70
2023/05/29 19:17:17;;;;;;;37.73;33.93;;;17.10;1.00;;;;;;2610710;54;20177;-70
2023/05/29 19:23:05;;;;;;;20.73;18.93;;;16.90;1.00;;;;;;2611250;54;20395;-70
2023/05/29 19:26:21;;;;;;;19.20;18.17;;;16.90;1.00;;;;;;2610499;54;20411;-70
2023/05/29 19:28:48;;;;;;;19.87;18.73;;;16.80;1.00;;;;;;2610981;54;20150;-70
2023/05/29 19:34:39;;;;;;;20.77;19.30;;;16.70;1.00;;;;;;2611066;54;20375;-70
2023/05/29 19:40:26;;;;;;;21.33;19.93;;;16.50;1.00;;;;;;2612247;39;20835;-70
2023/05/29 19:46:14;;;;;;;24.10;21.93;;;16.40;1.00;;;;;;2609588;54;20130;-70
2023/05/29 19:52:03;;;;;;;20.83;19.40;;;16.30;1.00;;;;;;2609359;54;20166;-69
2023/05/29 19:57:50;;;;;;;21.40;19.60;;;16.10;1.10;;;;;;2612957;54;20419;-70
2023/05/29 20:03:39;;;;;;;17.17;16.10;;;16.00;1.10;;;;;;2614101;54;20382;-70
2023/05/29 20:09:27;;;;;;;16.73;15.73;;;15.80;3.20;;;;;;2614056;54;20483;-70
2023/05/29 20:15:14;;;;;;;18.10;16.87;;;15.70;3.70;;;;;;2613210;54;20249;-71
2023/05/29 20:21:02;;;;;;;18.43;16.77;;;15.50;4.70;;;;;;2613679;54;20246;-71
2023/05/29 20:30:49;;;;;;;17.10;16.00;;;15.40;4.50;;;;;;2610861;54;20359;-72
2023/05/29 20:36:38;;;;;;;17.07;16.10;;;15.30;4.40;;;;;;2609897;54;20390;-70
2023/05/29 20:42:26;;;;;;;17.33;15.90;;;15.10;5.90;;;;;;2611937;54;20238;-71
2023/05/29 20:48:14;;;;;;;18.83;17.33;;;15.00;6.30;;;;;;2612877;54;22196;-71
2023/05/29 20:54:03;;;;;;;18.83;17.33;;;14.90;6.90;;;;;;2613349;54;20179;-71
2023/05/29 20:59:50;;;;;;;18.30;16.60;;;14.90;6.70;;;;;;2610643;54;21148;-72
2023/05/29 21:05:40;;;;;;;17.73;16.30;;;14.80;7.00;;;;;;2610132;54;20130;-69
2023/05/29 21:11:28;;;;;;;18.13;16.93;;;14.70;6.80;;;;;;2610574;54;20391;-72
2023/05/29 21:17:15;;;;;;;16.33;15.33;;;14.40;7.90;;;;;;2613940;54;20725;-70
2023/05/29 21:23:03;;;;;;;19.67;17.73;;;14.40;7.90;;;;;;2613323;54;20178;-69
2023/05/29 21:26:26;;;;;;;18.80;17.10;;;14.30;8.10;;;;;;2612758;54;20420;-70
2023/05/29 21:28:51;;;;;;;18.20;16.93;;;14.30;8.70;;;;;;2614215;54;20143;-70
2023/05/29 21:34:40;;;;;;;18.00;16.50;;;14.20;8.70;;;;;;2614042;39;20536;-70
2023/05/29 21:40:27;;;;;;;16.73;15.43;;;14.20;9.20;;;;;;2614334;39;20790;-70
2023/05/29 21:46:15;;;;;;;18.17;16.93;;;14.00;10.30;;;;;;2612609;54;20146;-71
2023/05/29 21:52:04;;;;;;;18.60;17.20;;;13.90;11.10;;;;;;2613831;39;20545;-69
2023/05/29 21:57:52;;;;;;;18.13;16.80;;;13.80;11.50;;;;;;2613658;54;20394;-70
2023/05/29 22:03:39;;;;;;;18.27;16.80;;;13.70;13.30;;;;;;2612962;54;20239;-70
2023/05/29 22:09:27;;;;;;;16.87;15.67;;;13.60;14.20;;;;;;2614578;54;20126;-70
2023/05/29 22:15:17;;;;;;;15.47;14.53;;;13.40;15.50;;;;;;2613072;54;20134;-72
2023/05/29 22:21:05;;;;;;;17.47;16.03;;;13.20;16.20;;;;;;2612052;54;20372;-71
2023/05/29 22:30:50;;;;;;;16.10;15.30;;;12.90;18.60;;;;;;2614288;54;21107;-69
2023/05/29 22:36:38;;;;;;;16.23;15.13;;;12.90;20.10;;;;;;2613699;54;20428;-70
2023/05/29 22:42:26;;;;;;;17.20;16.23;;;12.80;21.40;;;;;;2614753;54;20166;-70
2023/05/29 22:48:17;;;;;;;17.30;16.13;;;12.60;23.00;;;;;;2612140;54;20223;-70
2023/05/29 22:54:05;;;;;;;16.60;15.70;;;12.60;25.30;;;;;;2614523;54;20506;-70
2023/05/29 22:59:53;;;;;;;16.80;15.70;;;12.50;27.60;;;;;;2612186;54;20226;-69
2023/05/29 23:05:41;;;;;;;17.17;16.00;;;12.30;30.70;;;;;;2612517;54;22091;-70
2023/05/29 23:11:28;;;;;;;16.80;15.60;;;12.10;35.40;;;;;;2612104;54;20386;-70
2023/05/29 23:17:17;;;;;;;17.20;16.20;;;12.00;40.90;;;;;;2610928;54;20173;-69
2023/05/29 23:23:05;;;;;;;16.83;15.43;;;11.90;45.60;;;;;;2613796;54;20371;-69
2023/05/29 23:28:47;;;;;;;18.13;16.70;;;11.70;51.70;;;;;;2613750;54;20158;-70
2023/05/29 23:34:35;;;;;;;17.53;16.33;;;11.60;59.60;;;;;;2613822;54;20371;-70
2023/05/29 23:40:22;;;;;;;16.30;15.27;;;11.70;65.00;;;;;;2614065;46;20162;-70
2023/05/29 23:46:11;;;;;;;15.70;14.73;;;11.50;73.50;;;;;;2614555;54;20632;-69
2023/05/29 23:52:02;;;;;;;16.60;15.40;;;11.40;82.60;;;;;;2614380;39;20738;-70
2023/05/29 23:57:50;;;;;;;16.30;15.23;;;11.30;90.90;;;;;;2613688;54;20411;-70
